Time,TemperatureF,DewpointF,PressureIn,WindDirection,WindDirectionDegrees,WindSpeedMPH,WindSpeedGustMPH,Humidity,HourlyPrecipIn,Conditions,Clouds,dailyrainin,SoftwareType,DateUTC
2013-01-11 00:03:00,30.4,15.3,25.13,North,0,0.0,0.0,53,0.00,,---,0.00,VWS V13.01,2013-01-11 07:03:00,
2013-01-11 00:08:00,29.8,16.1,25.13,North,0,0.0,0.0,56,0.00,,---,0.00,VWS V13.01,2013-01-11 07:08:00,
2013-01-11 00:13:00,29.3,15.6,25.13,North,0,0.0,0.0,56,0.00,,---,0.00,VWS V13.01,2013-01-11 07:13:00,
2013-01-11 00:18:00,28.6,16.5,25.13,North,0,0.0,0.0,60,0.00,,---,0.00,VWS V13.01,2013-01-11 07:18:00,
2013-01-11 00:23:00,27.9,15.8,25.13,North,0,0.0,0.0,60,0.00,,---,0.00,VWS V13.01,2013-01-11 07:23:00,
2013-01-11 00:28:00,27.5,17.3,25.13,North,0,0.0,0.0,65,0.00,,---,0.00,VWS V13.01,2013-01-11 07:28:00,
2013-01-11 00:33:00,27.5,18.7,25.13,North,0,0.0,0.0,69,0.00,,---,0.00,VWS V13.01,2013-01-11 07:33:00,
2013-01-11 00:38:00,27.1,18.7,25.16,North,0,0.0,0.0,70,0.00,,---,0.00,VWS V13.01,2013-01-11 07:38:00,
2013-01-11 00:43:00,27.0,19.5,25.16,North,0,0.0,0.0,73,0.00,,---,0.00,VWS V13.01,2013-01-11 07:43:00,
2013-01-11 00:48:00,27.0,20.1,25.16,North,0,0.0,0.0,75,0.00,,---,0.00,VWS V13.01,2013-01-11 07:48:00,
2013-01-11 00:53:00,27.0,20.4,25.13,North,0,0.0,0.0,76,0.00,,---,0.00,VWS V13.01,2013-01-11 07:53:00,
2013-01-11 00:58:00,26.8,20.2,25.13,North,0,0.0,0.0,76,0.00,,---,0.00,VWS V13.01,2013-01-11 07:58:00,
2013-01-11 01:03:00,26.8,20.5,25.13,North,0,0.0,0.0,77,0.00,,---,0.00,VWS V13.01,2013-01-11 08:03:00,
2013-01-11 01:08:00,26.4,20.5,25.13,North,0,0.0,0.0,78,0.00,,---,0.00,VWS V13.01,2013-01-11 08:08:00,
2013-01-11 01:13:00,26.1,20.1,25.13,North,0,0.0,0.0,78,0.00,,---,0.00,VWS V13.01,2013-01-11 08:13:00,
2013-01-11 01:18:00,25.2,19.3,25.13,North,0,0.0,0.0,78,0.00,,---,0.00,VWS V13.01,2013-01-11 08:18:00,
2013-01-11 01:23:00,24.4,18.6,25.13,North,0,0.0,0.0,78,0.00,,---,0.00,VWS V13.01,2013-01-11 08:23:00,
2013-01-11 01:28:00,24.1,18.2,25.13,North,0,0.0,0.0,78,0.00,,---,0.00,VWS V13.01,2013-01-11 08:28:00,
2013-01-11 01:33:00,23.9,18.0,25.13,North,0,0.0,0.0,78,0.00,,---,0.00,VWS V13.01,2013-01-11 08:33:00,
2013-01-11 01:38:00,24.1,18.8,25.16,North,0,0.0,0.0,80,0.00,,---,0.00,VWS V13.01,2013-01-11 08:38:00,
2013-01-11 01:43:00,24.4,19.7,25.16,North,0,0.0,0.0,82,0.00,,---,0.00,VWS V13.01,2013-01-11 08:43:00,
2013-01-11 01:48:00,24.6,20.5,25.16,North,0,0.0,0.0,84,0.00,,---,0.00,VWS V13.01,2013-01-11 08:48:00,
2013-01-11 01:53:00,25.0,21.1,25.13,North,0,0.0,0.0,85,0.00,,---,0.00,VWS V13.01,2013-01-11 08:53:00,
2013-01-11 01:58:00,24.6,21.0,25.13,North,0,0.0,0.0,86,0.00,,---,0.00,VWS V13.01,2013-01-11 08:58:00,
2013-01-11 02:03:00,24.8,21.2,25.13,North,0,0.0,0.0,86,0.00,,---,0.00,VWS V13.01,2013-01-11 09:03:00,
2013-01-11 02:08:00,25.7,22.6,25.13,North,0,0.0,0.0,88,0.00,,---,0.00,VWS V13.01,2013-01-11 09:08:00,
2013-01-11 02:13:00,26.2,23.5,25.13,North,0,0.0,0.0,89,0.00,,---,0.00,VWS V13.01,2013-01-11 09:13:00,
2013-01-11 02:18:00,27.0,23.9,25.13,North,0,0.0,0.0,88,0.00,,---,0.00,VWS V13.01,2013-01-11 09:18:00,
2013-01-11 02:23:00,27.0,23.3,25.13,North,0,0.0,0.0,86,0.00,,---,0.00,VWS V13.01,2013-01-11 09:23:00,
2013-01-11 02:28:00,27.3,23.1,25.13,North,0,0.0,0.0,84,0.00,,---,0.00,VWS V13.01,2013-01-11 09:28:00,
2013-01-11 02:33:00,27.5,22.5,25.13,North,0,0.0,0.0,81,0.00,,---,0.00,VWS V13.01,2013-01-11 09:33:00,
2013-01-11 02:38:00,27.7,21.7,25.10,North,0,0.0,0.0,78,0.00,,---,0.00,VWS V13.01,2013-01-11 09:38:00,
2013-01-11 02:43:00,27.9,21.6,25.10,North,0,0.0,0.0,77,0.00,,---,0.00,VWS V13.01,2013-01-11 09:43:00,
2013-01-11 02:48:00,27.5,20.6,25.10,North,0,0.0,0.0,75,0.00,,---,0.00,VWS V13.01,2013-01-11 09:48:00,
2013-01-11 02:53:00,27.0,19.8,25.10,North,0,0.0,0.0,74,0.00,,---,0.00,VWS V13.01,2013-01-11 09:53:00,
2013-01-11 02:58:00,26.6,19.8,25.10,North,0,0.0,0.0,75,0.00,,---,0.00,VWS V13.01,2013-01-11 09:58:00,
2013-01-11 03:03:00,26.2,19.7,25.10,North,0,0.0,0.0,76,0.00,,---,0.00,VWS V13.01,2013-01-11 10:03:00,
2013-01-11 03:08:00,26.1,20.1,25.10,North,0,0.0,0.0,78,0.00,,---,0.00,VWS V13.01,2013-01-11 10:08:00,
2013-01-11 03:13:00,25.9,20.6,25.10,North,0,0.0,0.0,80,0.00,,---,0.00,VWS V13.01,2013-01-11 10:13:00,
2013-01-11 03:18:00,25.5,20.5,25.10,North,0,0.0,0.0,81,0.00,,---,0.00,VWS V13.01,2013-01-11 10:18:00,
2013-01-11 03:23:00,25.2,20.5,25.10,North,0,0.0,0.0,82,0.00,,---,0.00,VWS V13.01,2013-01-11 10:23:00,
2013-01-11 03:28:00,25.3,21.2,25.10,North,0,0.0,0.0,84,0.00,,---,0.00,VWS V13.01,2013-01-11 10:28:00,
2013-01-11 03:33:00,25.5,21.9,25.10,North,0,0.0,0.0,86,0.00,,---,0.00,VWS V13.01,2013-01-11 10:33:00,
2013-01-11 03:38:00,25.5,22.2,25.10,North,0,0.0,0.0,87,0.00,,---,0.00,VWS V13.01,2013-01-11 10:38:00,
2013-01-11 03:43:00,25.5,22.5,25.10,North,0,0.0,0.0,88,0.00,,---,0.00,VWS V13.01,2013-01-11 10:43:00,
2013-01-11 03:48:00,25.3,22.0,25.10,North,0,0.0,0.0,87,0.00,,---,0.00,VWS V13.01,2013-01-11 10:48:00,
2013-01-11 03:53:00,25.3,22.0,25.10,North,0,0.0,0.0,87,0.00,,---,0.00,VWS V13.01,2013-01-11 10:53:00,
2013-01-11 03:58:00,25.2,21.8,25.10,North,0,0.0,0.0,87,0.00,,---,0.00,VWS V13.01,2013-01-11 10:58:00,
2013-01-11 04:03:00,25.0,21.7,25.10,North,0,0.0,0.0,87,0.00,,---,0.00,VWS V13.01,2013-01-11 11:03:00,
2013-01-11 04:08:00,24.8,21.5,25.10,North,0,0.0,0.0,87,0.00,,---,0.00,VWS V13.01,2013-01-11 11:08:00,
2013-01-11 04:13:00,24.4,20.9,25.10,North,0,0.0,0.0,86,0.00,,---,0.00,VWS V13.01,2013-01-11 11:13:00,
2013-01-11 04:18:00,24.3,20.4,25.10,North,0,0.0,0.0,85,0.00,,---,0.00,VWS V13.01,2013-01-11 11:18:00,
2013-01-11 04:23:00,23.9,20.1,25.10,North,0,0.0,0.0,85,0.00,,---,0.00,VWS V13.01,2013-01-11 11:23:00,
2013-01-11 04:28:00,23.5,19.4,25.10,North,0,0.0,0.0,84,0.00,,---,0.00,VWS V13.01,2013-01-11 11:28:00,
2013-01-11 04:33:00,23.2,19.1,25.10,North,0,0.0,0.0,84,0.00,,---,0.00,VWS V13.01,2013-01-11 11:33:00,
2013-01-11 04:38:00,22.8,19.0,25.10,North,0,0.0,0.0,85,0.00,,---,0.00,VWS V13.01,2013-01-11 11:38:00,
2013-01-11 04:43:00,22.6,19.1,25.10,North,0,0.0,0.0,86,0.00,,---,0.00,VWS V13.01,2013-01-11 11:43:00,
2013-01-11 04:48:00,22.5,18.9,25.10,North,0,0.0,0.0,86,0.00,,---,0.00,VWS V13.01,2013-01-11 11:48:00,
2013-01-11 04:53:00,22.5,19.2,25.10,North,0,0.0,0.0,87,0.00,,---,0.00,VWS V13.01,2013-01-11 11:53:00,
2013-01-11 04:58:00,22.5,19.2,25.10,North,0,0.0,0.0,87,0.00,,---,0.00,VWS V13.01,2013-01-11 11:58:00,
2013-01-11 05:03:00,22.3,19.0,25.10,North,0,0.0,0.0,87,0.00,,---,0.00,VWS V13.01,2013-01-11 12:03:00,
2013-01-11 05:08:00,22.1,18.8,25.10,North,0,0.0,0.0,87,0.00,,---,0.00,VWS V13.01,2013-01-11 12:08:00,
2013-01-11 05:13:00,21.9,18.9,25.10,North,0,0.0,0.0,88,0.00,,---,0.00,VWS V13.01,2013-01-11 12:13:00,
2013-01-11 05:18:00,21.7,18.7,25.10,North,0,0.0,0.0,88,0.00,,---,0.00,VWS V13.01,2013-01-11 12:18:00,
2013-01-11 05:23:00,21.7,18.7,25.07,North,0,0.0,0.0,88,0.00,,---,0.00,VWS V13.01,2013-01-11 12:23:00,
2013-01-11 05:28:00,21.7,19.0,25.07,North,0,0.0,0.0,89,0.00,,---,0.00,VWS V13.01,2013-01-11 12:28:00,
2013-01-11 05:33:00,21.7,19.0,25.07,North,0,0.0,0.0,89,0.00,,---,0.00,VWS V13.01,2013-01-11 12:33:00,
2013-01-11 05:38:00,21.7,18.7,25.07,North,0,0.0,0.0,88,0.00,,---,0.00,VWS V13.01,2013-01-11 12:38:00,
2013-01-11 05:43:00,21.7,18.7,25.07,North,0,0.0,0.0,88,0.00,,---,0.00,VWS V13.01,2013-01-11 12:43:00,
2013-01-11 05:48:00,21.6,18.6,25.07,North,0,0.0,0.0,88,0.00,,---,0.00,VWS V13.01,2013-01-11 12:48:00,
2013-01-11 05:53:00,21.6,18.3,25.10,North,0,0.0,0.0,87,0.00,,---,0.00,VWS V13.01,2013-01-11 12:53:00,
2013-01-11 05:58:00,21.6,18.0,25.10,North,0,0.0,0.0,86,0.00,,---,0.00,VWS V13.01,2013-01-11 12:58:00,
2013-01-11 06:03:00,21.6,18.0,25.10,North,0,0.0,0.0,86,0.00,,---,0.00,VWS V13.01,2013-01-11 13:03:00,
2013-01-11 06:08:00,21.4,17.6,25.10,North,0,0.0,0.0,85,0.00,,---,0.00,VWS V13.01,2013-01-11 13:08:00,
2013-01-11 06:13:00,21.6,17.8,25.10,North,0,0.0,0.0,85,0.00,,---,0.00,VWS V13.01,2013-01-11 13:13:00,
2013-01-11 06:18:00,21.6,17.8,25.10,North,0,0.0,0.0,85,0.00,,---,0.00,VWS V13.01,2013-01-11 13:18:00,
2013-01-11 06:23:00,21.7,17.7,25.10,North,0,0.0,0.0,84,0.00,,---,0.00,VWS V13.01,2013-01-11 13:23:00,
2013-01-11 06:28:00,21.7,17.4,25.10,North,0,0.0,0.0,83,0.00,,---,0.00,VWS V13.01,2013-01-11 13:28:00,
2013-01-11 06:33:00,21.9,17.6,25.10,North,0,0.0,0.0,83,0.00,,---,0.00,VWS V13.01,2013-01-11 13:33:00,
2013-01-11 06:38:00,21.7,17.1,25.10,North,0,0.0,0.0,82,0.00,,---,0.00,VWS V13.01,2013-01-11 13:38:00,
2013-01-11 06:43:00,21.7,16.8,25.10,North,0,0.0,0.0,81,0.00,,---,0.00,VWS V13.01,2013-01-11 13:43:00,
2013-01-11 06:48:00,21.6,16.4,25.10,North,0,0.0,0.0,80,0.00,,---,0.00,VWS V13.01,2013-01-11 13:48:00,
2013-01-11 06:53:00,21.6,16.1,25.10,North,0,0.0,0.0,79,0.00,,---,0.00,VWS V13.01,2013-01-11 13:53:00,
2013-01-11 06:58:00,21.6,16.1,25.10,North,0,0.0,0.0,79,0.00,,---,0.00,VWS V13.01,2013-01-11 13:58:00,
2013-01-11 07:03:00,21.9,16.4,25.10,North,0,0.0,0.0,79,0.00,,---,0.00,VWS V13.01,2013-01-11 14:03:00,
2013-01-11 07:08:00,22.5,16.4,25.10,North,0,0.0,0.0,77,0.00,,---,0.00,VWS V13.01,2013-01-11 14:08:00,
2013-01-11 07:13:00,22.8,15.5,25.10,North,0,0.0,0.0,73,0.00,,---,0.00,VWS V13.01,2013-01-11 14:13:00,
2013-01-11 07:18:00,23.0,14.7,25.10,North,0,0.0,0.0,70,0.00,,---,0.00,VWS V13.01,2013-01-11 14:18:00,
2013-01-11 07:23:00,23.0,14.0,25.10,North,0,0.0,0.0,68,0.00,,---,0.00,VWS V13.01,2013-01-11 14:23:00,
2013-01-11 07:28:00,23.0,13.7,25.10,North,0,0.0,0.0,67,0.00,,---,0.00,VWS V13.01,2013-01-11 14:28:00,
2013-01-11 07:32:00,23.0,13.7,25.10,North,0,0.0,0.0,67,0.00,,---,0.00,VWS V13.01,2013-01-11 14:32:00,
2013-01-11 07:37:00,23.0,13.4,25.13,North,0,0.0,0.0,66,0.00,,---,0.00,VWS V13.01,2013-01-11 14:37:00,
2013-01-11 07:42:00,22.8,12.8,25.13,North,0,0.0,0.0,65,0.00,,---,0.00,VWS V13.01,2013-01-11 14:42:00,
2013-01-11 07:47:00,22.8,12.8,25.13,North,0,0.0,0.0,65,0.00,,---,0.00,VWS V13.01,2013-01-11 14:47:00,
2013-01-11 07:52:00,22.6,12.3,25.13,North,0,0.0,0.0,64,0.00,,---,0.00,VWS V13.01,2013-01-11 14:52:00,
2013-01-11 07:57:00,22.5,12.1,25.13,North,0,0.0,0.0,64,0.00,,---,0.00,VWS V13.01,2013-01-11 14:57:00,
2013-01-11 08:02:00,22.1,12.1,25.13,North,0,0.0,0.0,65,0.00,,---,0.00,VWS V13.01,2013-01-11 15:02:00,
2013-01-11 08:07:00,21.7,13.5,25.13,North,0,0.0,0.0,70,0.00,,---,0.00,VWS V13.01,2013-01-11 15:07:00,
2013-01-11 08:12:00,21.4,14.4,25.13,North,0,0.0,0.0,74,0.00,,---,0.00,VWS V13.01,2013-01-11 15:12:00,
2013-01-11 08:17:00,21.2,14.8,25.13,North,0,0.0,0.0,76,0.00,,---,0.00,VWS V13.01,2013-01-11 15:17:00,
2013-01-11 08:22:00,21.0,14.9,25.13,North,0,0.0,0.0,77,0.00,,---,0.00,VWS V13.01,2013-01-11 15:22:00,
2013-01-11 08:27:00,20.8,15.1,25.13,North,0,0.0,0.0,78,0.00,,---,0.00,VWS V13.01,2013-01-11 15:27:00,
2013-01-11 08:32:00,20.7,15.2,25.13,North,0,0.0,0.0,79,0.00,,---,0.00,VWS V13.01,2013-01-11 15:32:00,
2013-01-11 08:37:00,20.5,15.0,25.13,North,0,0.0,0.0,79,0.00,,---,0.00,VWS V13.01,2013-01-11 15:37:00,
2013-01-11 08:42:00,20.3,14.8,25.13,North,0,0.0,0.0,79,0.00,,---,0.00,VWS V13.01,2013-01-11 15:42:00,
2013-01-11 08:47:00,20.3,14.6,25.13,North,0,0.0,0.0,78,0.00,,---,0.00,VWS V13.01,2013-01-11 15:47:00,
2013-01-11 08:52:00,20.3,14.6,25.13,North,0,0.0,0.0,78,0.00,,---,0.00,VWS V13.01,2013-01-11 15:52:00,
2013-01-11 08:57:00,20.1,14.1,25.13,North,0,0.0,0.0,77,0.00,,---,0.00,VWS V13.01,2013-01-11 15:57:00,
2013-01-11 09:02:00,20.1,13.5,25.13,North,0,0.0,0.0,75,0.00,,---,0.00,VWS V13.01,2013-01-11 16:02:00,
2013-01-11 09:07:00,20.3,13.4,25.13,North,0,0.0,0.0,74,0.00,,---,0.00,VWS V13.01,2013-01-11 16:07:00,
2013-01-11 09:12:00,19.9,12.4,25.13,North,0,0.0,0.0,72,0.00,,---,0.00,VWS V13.01,2013-01-11 16:12:00,
2013-01-11 09:17:00,19.0,11.2,25.13,North,0,0.0,0.0,71,0.00,,---,0.00,VWS V13.01,2013-01-11 16:17:00,
2013-01-11 09:22:00,18.1,10.6,25.13,North,0,0.0,0.0,72,0.00,,---,0.00,VWS V13.01,2013-01-11 16:22:00,
2013-01-11 09:27:00,17.8,10.6,25.13,North,0,0.0,0.0,73,0.00,,---,0.00,VWS V13.01,2013-01-11 16:27:00,
2013-01-11 09:32:00,17.6,10.7,25.13,North,0,0.0,0.0,74,0.00,,---,0.00,VWS V13.01,2013-01-11 16:32:00,
2013-01-11 09:37:00,17.6,10.7,25.13,North,0,0.0,0.0,74,0.00,,---,0.00,VWS V13.01,2013-01-11 16:37:00,
2013-01-11 09:42:00,18.0,11.1,25.13,North,0,0.0,0.0,74,0.00,,---,0.00,VWS V13.01,2013-01-11 16:42:00,
2013-01-11 09:47:00,18.3,11.1,25.13,North,0,0.0,0.0,73,0.00,,---,0.00,VWS V13.01,2013-01-11 16:47:00,
2013-01-11 09:52:00,18.1,9.0,25.16,North,0,0.0,0.0,67,0.00,,---,0.00,VWS V13.01,2013-01-11 16:52:00,
2013-01-11 09:57:00,17.6,7.8,25.16,North,0,0.0,0.0,65,0.00,,---,0.00,VWS V13.01,2013-01-11 16:57:00,
2013-01-11 10:02:00,17.6,8.5,25.16,North,0,0.0,0.0,67,0.00,,---,0.00,VWS V13.01,2013-01-11 17:02:00,
2013-01-11 10:07:00,17.6,8.2,25.16,North,0,0.0,0.0,66,0.00,,---,0.00,VWS V13.01,2013-01-11 17:07:00,
2013-01-11 10:12:00,17.6,8.2,25.16,North,0,0.0,0.0,66,0.00,,---,0.00,VWS V13.01,2013-01-11 17:12:00,
2013-01-11 10:17:00,17.1,7.3,25.16,North,0,0.0,0.0,65,0.00,,---,0.00,VWS V13.01,2013-01-11 17:17:00,
2013-01-11 10:22:00,17.2,7.5,25.16,North,0,0.0,0.0,65,0.00,,---,0.00,VWS V13.01,2013-01-11 17:22:00,
2013-01-11 10:27:00,16.5,6.8,25.16,North,0,0.0,0.0,65,0.00,,---,0.00,VWS V13.01,2013-01-11 17:27:00,
2013-01-11 10:32:00,16.2,7.8,25.16,North,0,0.0,0.0,69,0.00,,---,0.00,VWS V13.01,2013-01-11 17:32:00,
2013-01-11 10:37:00,16.3,8.6,25.16,North,0,0.0,0.0,71,0.00,,---,0.00,VWS V13.01,2013-01-11 17:37:00,
2013-01-11 10:42:00,16.3,8.9,25.16,North,0,0.0,0.0,72,0.00,,---,0.00,VWS V13.01,2013-01-11 17:42:00,
2013-01-11 10:47:00,16.5,9.1,25.16,North,0,0.0,0.0,72,0.00,,---,0.00,VWS V13.01,2013-01-11 17:47:00,
2013-01-11 10:52:00,16.2,8.4,25.16,North,0,0.0,0.0,71,0.00,,---,0.00,VWS V13.01,2013-01-11 17:52:00,
2013-01-11 10:57:00,16.0,8.6,25.16,North,0,0.0,0.0,72,0.00,,---,0.00,VWS V13.01,2013-01-11 17:57:00,
2013-01-11 11:02:00,16.2,8.7,25.16,North,0,0.0,0.0,72,0.00,,---,0.00,VWS V13.01,2013-01-11 18:02:00,
2013-01-11 11:07:00,15.8,7.1,25.13,North,0,0.0,0.0,68,0.00,,---,0.00,VWS V13.01,2013-01-11 18:07:00,
2013-01-11 11:12:00,16.0,6.6,25.13,North,0,0.0,0.0,66,0.00,,---,0.00,VWS V13.01,2013-01-11 18:12:00,
2013-01-11 11:17:00,16.3,6.3,25.13,North,0,0.0,0.0,64,0.00,,---,0.00,VWS V13.01,2013-01-11 18:17:00,
2013-01-11 11:22:00,16.3,5.6,25.13,North,0,0.0,0.0,62,0.00,,---,0.00,VWS V13.01,2013-01-11 18:22:00,
2013-01-11 11:27:00,16.2,5.1,25.13,North,0,0.0,0.0,61,0.00,,---,0.00,VWS V13.01,2013-01-11 18:27:00,
2013-01-11 11:32:00,16.3,5.3,25.13,North,0,0.0,0.0,61,0.00,,---,0.00,VWS V13.01,2013-01-11 18:32:00,
2013-01-11 11:37:00,16.5,4.3,25.16,North,0,0.0,0.0,58,0.00,,---,0.00,VWS V13.01,2013-01-11 18:37:00,
2013-01-11 11:42:00,16.3,3.4,25.16,North,0,0.0,0.0,56,0.00,,---,0.00,VWS V13.01,2013-01-11 18:42:00,
2013-01-11 11:47:00,15.8,2.5,25.16,North,0,0.0,0.0,55,0.00,,---,0.00,VWS V13.01,2013-01-11 18:47:00,
2013-01-11 11:52:00,16.0,2.3,25.16,North,0,0.0,0.0,54,0.00,,---,0.00,VWS V13.01,2013-01-11 18:52:00,
2013-01-11 11:57:00,16.0,2.3,25.16,North,0,0.0,0.0,54,0.00,,---,0.00,VWS V13.01,2013-01-11 18:57:00,
2013-01-11 12:02:00,16.0,2.3,25.16,North,0,0.0,0.0,54,0.00,,---,0.00,VWS V13.01,2013-01-11 19:02:00,
2013-01-11 12:07:00,15.8,2.1,25.13,North,0,0.0,0.0,54,0.00,,---,0.00,VWS V13.01,2013-01-11 19:07:00,
2013-01-11 12:12:00,15.3,2.0,25.13,North,0,0.0,0.0,55,0.00,,---,0.00,VWS V13.01,2013-01-11 19:12:00,
2013-01-11 12:17:00,15.1,1.8,25.13,North,0,0.0,0.0,55,0.00,,---,0.00,VWS V13.01,2013-01-11 19:17:00,
2013-01-11 12:22:00,14.4,1.9,25.13,North,0,0.0,0.0,57,0.00,,---,0.00,VWS V13.01,2013-01-11 19:22:00,
2013-01-11 12:27:00,14.4,1.2,25.13,North,0,0.0,0.0,55,0.00,,---,0.00,VWS V13.01,2013-01-11 19:27:00,
2013-01-11 12:32:00,14.4,1.2,25.13,North,0,0.0,0.0,55,0.00,,---,0.00,VWS V13.01,2013-01-11 19:32:00,
2013-01-11 12:37:00,13.6,0.1,25.13,North,0,0.0,0.0,54,0.00,,---,0.00,VWS V13.01,2013-01-11 19:37:00,
2013-01-11 12:42:00,14.2,0.2,25.13,North,0,0.0,0.0,53,0.00,,---,0.00,VWS V13.01,2013-01-11 19:42:00,
2013-01-11 12:47:00,14.0,0.0,25.13,North,0,0.0,0.0,53,0.00,,---,0.00,VWS V13.01,2013-01-11 19:47:00,
2013-01-11 12:52:00,14.2,0.6,25.13,North,0,0.0,0.0,54,0.00,,---,0.00,VWS V13.01,2013-01-11 19:52:00,
2013-01-11 12:58:00,14.5,1.3,25.13,North,0,0.0,0.0,55,0.00,,---,0.00,VWS V13.01,2013-01-11 19:58:00,
2013-01-11 13:02:00,14.7,1.9,25.13,North,0,0.0,0.0,56,0.00,,---,0.00,VWS V13.01,2013-01-11 20:02:00,
2013-01-11 13:07:00,14.5,2.1,25.13,North,0,0.0,0.0,57,0.00,,---,0.00,VWS V13.01,2013-01-11 20:07:00,
2013-01-11 13:12:00,14.2,2.1,25.13,North,0,0.0,0.0,58,0.00,,---,0.00,VWS V13.01,2013-01-11 20:12:00,
2013-01-11 13:17:00,13.5,1.5,25.13,North,0,0.0,0.0,58,0.00,,---,0.00,VWS V13.01,2013-01-11 20:17:00,
2013-01-11 13:22:00,13.3,1.3,25.16,North,0,0.0,0.0,58,0.00,,---,0.00,VWS V13.01,2013-01-11 20:22:00,
2013-01-11 13:27:00,12.9,0.9,25.16,North,0,0.0,0.0,58,0.00,,---,0.00,VWS V13.01,2013-01-11 20:27:00,
2013-01-11 13:32:00,12.7,0.8,25.16,North,0,0.0,0.0,58,0.00,,---,0.00,VWS V13.01,2013-01-11 20:32:00,
2013-01-11 13:37:00,12.2,0.3,25.16,North,0,0.0,0.0,58,0.00,,---,0.00,VWS V13.01,2013-01-11 20:37:00,
2013-01-11 13:42:00,12.2,0.3,25.16,North,0,0.0,0.0,58,0.00,,---,0.00,VWS V13.01,2013-01-11 20:42:00,
2013-01-11 13:47:00,12.2,0.3,25.16,North,0,0.0,0.0,58,0.00,,---,0.00,VWS V13.01,2013-01-11 20:47:00,
2013-01-11 13:52:00,12.4,0.4,25.16,North,0,0.0,0.0,58,0.00,,---,0.00,VWS V13.01,2013-01-11 20:52:00,
2013-01-11 13:57:00,12.2,0.3,25.16,North,0,0.0,0.0,58,0.00,,---,0.00,VWS V13.01,2013-01-11 20:57:00,
2013-01-11 14:02:00,11.8,-0.1,25.16,North,0,0.0,0.0,58,0.00,,---,0.00,VWS V13.01,2013-01-11 21:02:00,
2013-01-11 14:07:00,11.7,-0.2,25.16,North,0,0.0,0.0,58,0.00,,---,0.00,VWS V13.01,2013-01-11 21:07:00,
2013-01-11 14:12:00,11.7,-0.2,25.16,North,0,0.0,0.0,58,0.00,,---,0.00,VWS V13.01,2013-01-11 21:12:00,
2013-01-11 14:17:00,11.7,-0.2,25.16,North,0,0.0,0.0,58,0.00,,---,0.00,VWS V13.01,2013-01-11 21:17:00,
2013-01-11 14:22:00,10.9,-0.9,25.16,North,0,0.0,0.0,58,0.00,,---,0.00,VWS V13.01,2013-01-11 21:22:00,
2013-01-11 14:27:00,10.8,-1.1,25.16,North,0,0.0,0.0,58,0.00,,---,0.00,VWS V13.01,2013-01-11 21:27:00,
2013-01-11 14:32:00,10.4,-1.4,25.16,North,0,0.0,0.0,58,0.00,,---,0.00,VWS V13.01,2013-01-11 21:32:00,
2013-01-11 14:37:00,10.4,-1.4,25.19,North,0,0.0,0.0,58,0.00,,---,0.00,VWS V13.01,2013-01-11 21:37:00,
2013-01-11 14:42:00,10.2,-1.6,25.19,North,0,0.0,0.0,58,0.00,,---,0.00,VWS V13.01,2013-01-11 21:42:00,
2013-01-11 14:47:00,10.4,-1.4,25.19,North,0,0.0,0.0,58,0.00,,---,0.00,VWS V13.01,2013-01-11 21:47:00,
2013-01-11 14:52:00,10.2,-1.6,25.19,North,0,0.0,0.0,58,0.00,,---,0.00,VWS V13.01,2013-01-11 21:52:00,
2013-01-11 14:57:00,10.2,-1.6,25.19,North,0,0.0,0.0,58,0.00,,---,0.00,VWS V13.01,2013-01-11 21:57:00,
2013-01-11 15:02:00,10.2,-1.6,25.19,North,0,0.0,0.0,58,0.00,,---,0.00,VWS V13.01,2013-01-11 22:02:00,
2013-01-11 15:07:00,10.0,-1.8,25.19,North,0,0.0,0.0,58,0.00,,---,0.00,VWS V13.01,2013-01-11 22:07:00,
2013-01-11 15:12:00,10.2,-1.6,25.19,North,0,0.0,0.0,58,0.00,,---,0.00,VWS V13.01,2013-01-11 22:12:00,
2013-01-11 15:17:00,10.0,-1.8,25.19,North,0,0.0,0.0,58,0.00,,---,0.00,VWS V13.01,2013-01-11 22:17:00,
2013-01-11 15:22:00,10.0,-1.8,25.22,North,0,0.0,0.0,58,0.00,,---,0.00,VWS V13.01,2013-01-11 22:22:00,
2013-01-11 15:27:00,10.0,-1.8,25.22,North,0,0.0,0.0,58,0.00,,---,0.00,VWS V13.01,2013-01-11 22:27:00,
2013-01-11 15:32:00,9.9,-2.0,25.22,North,0,0.0,0.0,58,0.00,,---,0.00,VWS V13.01,2013-01-11 22:32:00,
2013-01-11 15:37:00,9.9,-2.0,25.22,North,0,0.0,0.0,58,0.00,,---,0.00,VWS V13.01,2013-01-11 22:37:00,
2013-01-11 15:42:00,9.7,-2.1,25.22,North,0,0.0,0.0,58,0.00,,---,0.00,VWS V13.01,2013-01-11 22:42:00,
2013-01-11 15:47:00,9.9,-2.0,25.22,North,0,0.0,0.0,58,0.00,,---,0.00,VWS V13.01,2013-01-11 22:47:00,
2013-01-11 15:52:00,9.7,-2.1,25.22,North,0,0.0,0.0,58,0.00,,---,0.00,VWS V13.01,2013-01-11 22:52:00,
2013-01-11 15:57:00,9.5,-2.3,25.22,North,0,0.0,0.0,58,0.00,,---,0.00,VWS V13.01,2013-01-11 22:57:00,
2013-01-11 16:02:00,9.5,-2.3,25.22,North,0,0.0,0.0,58,0.00,,---,0.00,VWS V13.01,2013-01-11 23:02:00,
2013-01-11 16:07:00,9.5,-2.3,25.22,North,0,0.0,0.0,58,0.00,,---,0.00,VWS V13.01,2013-01-11 23:07:00,
2013-01-11 16:12:00,9.5,-2.3,25.22,North,0,0.0,0.0,58,0.00,,---,0.00,VWS V13.01,2013-01-11 23:12:00,
2013-01-11 16:17:00,9.3,-2.5,25.22,North,0,0.0,0.0,58,0.00,,---,0.00,VWS V13.01,2013-01-11 23:17:00,
2013-01-11 16:22:00,9.3,-2.5,25.22,North,0,0.0,0.0,58,0.00,,---,0.00,VWS V13.01,2013-01-11 23:22:00,
2013-01-11 16:27:00,9.5,-2.3,25.22,North,0,0.0,0.0,58,0.00,,---,0.00,VWS V13.01,2013-01-11 23:27:00,
2013-01-11 16:32:00,9.3,-2.5,25.22,North,0,0.0,0.0,58,0.00,,---,0.00,VWS V13.01,2013-01-11 23:32:00,
2013-01-11 16:37:00,9.1,-2.6,25.22,North,0,0.0,0.0,58,0.00,,---,0.00,VWS V13.01,2013-01-11 23:37:00,
2013-01-11 16:42:00,9.1,-2.6,25.22,North,0,0.0,0.0,58,0.00,,---,0.00,VWS V13.01,2013-01-11 23:42:00,
2013-01-11 16:47:00,9.1,-2.6,25.22,North,0,0.0,0.0,58,0.00,,---,0.00,VWS V13.01,2013-01-11 23:47:00,
2013-01-11 16:52:00,9.1,-2.6,25.22,North,0,0.0,0.0,58,0.00,,---,0.00,VWS V13.01,2013-01-11 23:52:00,
2013-01-11 16:57:00,9.1,-2.6,25.22,North,0,0.0,0.0,58,0.00,,---,0.00,VWS V13.01,2013-01-11 23:57:00,
2013-01-11 17:02:00,9.1,-2.6,25.22,North,0,0.0,0.0,58,0.00,,---,0.00,VWS V13.01,2013-01-12 00:02:00,
2013-01-11 17:07:00,9.1,-2.6,25.22,North,0,0.0,0.0,58,0.00,,---,0.00,VWS V13.01,2013-01-12 00:07:00,
2013-01-11 17:12:00,9.1,-2.6,25.22,North,0,0.0,0.0,58,0.00,,---,0.00,VWS V13.01,2013-01-12 00:12:00,
2013-01-11 17:17:00,9.1,-2.6,25.22,North,0,0.0,0.0,58,0.00,,---,0.00,VWS V13.01,2013-01-12 00:17:00,
2013-01-11 17:22:00,9.1,-2.6,25.22,North,0,0.0,0.0,58,0.00,,---,0.00,VWS V13.01,2013-01-12 00:22:00,
2013-01-11 17:27:00,8.8,-3.0,25.22,North,0,0.0,0.0,58,0.00,,---,0.00,VWS V13.01,2013-01-12 00:27:00,
2013-01-11 17:32:00,8.8,-3.0,25.22,North,0,0.0,0.0,58,0.00,,---,0.00,VWS V13.01,2013-01-12 00:32:00,
2013-01-11 17:37:00,8.6,-3.1,25.22,North,0,0.0,0.0,58,0.00,,---,0.00,VWS V13.01,2013-01-12 00:37:00,
2013-01-11 17:42:00,8.6,-3.1,25.22,North,0,0.0,0.0,58,0.00,,---,0.00,VWS V13.01,2013-01-12 00:42:00,
2013-01-11 17:47:00,8.6,-3.1,25.22,North,0,0.0,0.0,58,0.00,,---,0.00,VWS V13.01,2013-01-12 00:47:00,
2013-01-11 17:52:00,8.6,-3.1,25.22,North,0,0.0,0.0,58,0.00,,---,0.00,VWS V13.01,2013-01-12 00:52:00,
2013-01-11 17:57:00,8.6,-3.1,25.22,North,0,0.0,0.0,58,0.00,,---,0.00,VWS V13.01,2013-01-12 00:57:00,
2013-01-11 18:02:00,8.6,-3.1,25.22,North,0,0.0,0.0,58,0.00,,---,0.00,VWS V13.01,2013-01-12 01:02:00,
2013-01-11 18:07:00,8.4,-3.3,25.25,North,0,0.0,0.0,58,0.00,,---,0.00,VWS V13.01,2013-01-12 01:07:00,
2013-01-11 18:12:00,8.4,-3.3,25.25,North,0,0.0,0.0,58,0.00,,---,0.00,VWS V13.01,2013-01-12 01:12:00,
2013-01-11 18:17:00,8.2,-3.5,25.25,North,0,0.0,0.0,58,0.00,,---,0.00,VWS V13.01,2013-01-12 01:17:00,
2013-01-11 18:22:00,8.4,-3.3,25.25,North,0,0.0,0.0,58,0.00,,---,0.00,VWS V13.01,2013-01-12 01:22:00,
2013-01-11 18:27:00,8.4,-3.3,25.25,North,0,0.0,0.0,58,0.00,,---,0.00,VWS V13.01,2013-01-12 01:27:00,
2013-01-11 18:32:00,8.4,-3.3,25.25,North,0,0.0,0.0,58,0.00,,---,0.00,VWS V13.01,2013-01-12 01:32:00,
2013-01-11 18:37:00,8.1,-3.7,25.25,North,0,0.0,0.0,58,0.00,,---,0.00,VWS V13.01,2013-01-12 01:37:00,
2013-01-11 18:42:00,7.9,-3.8,25.25,North,0,0.0,0.0,58,0.00,,---,0.00,VWS V13.01,2013-01-12 01:42:00,
2013-01-11 18:47:00,7.9,-3.8,25.25,North,0,0.0,0.0,58,0.00,,---,0.00,VWS V13.01,2013-01-12 01:47:00,
2013-01-11 18:52:00,7.9,-3.8,25.25,North,0,0.0,0.0,58,0.00,,---,0.00,VWS V13.01,2013-01-12 01:52:00,
2013-01-11 18:57:00,7.9,-3.8,25.25,North,0,0.0,0.0,58,0.00,,---,0.00,VWS V13.01,2013-01-12 01:57:00,
2013-01-11 19:02:00,8.1,-3.7,25.25,North,0,0.0,0.0,58,0.00,,---,0.00,VWS V13.01,2013-01-12 02:02:00,
2013-01-11 19:07:00,8.1,-3.7,25.25,North,0,0.0,0.0,58,0.00,,---,0.00,VWS V13.01,2013-01-12 02:07:00,
2013-01-11 19:12:00,8.1,-3.7,25.25,North,0,0.0,0.0,58,0.00,,---,0.00,VWS V13.01,2013-01-12 02:12:00,
2013-01-11 19:17:00,8.1,-3.7,25.25,North,0,0.0,0.0,58,0.00,,---,0.00,VWS V13.01,2013-01-12 02:17:00,
2013-01-11 19:22:00,7.9,-3.8,25.25,North,0,0.0,0.0,58,0.00,,---,0.00,VWS V13.01,2013-01-12 02:22:00,
2013-01-11 19:27:00,7.9,-3.8,25.25,North,0,0.0,0.0,58,0.00,,---,0.00,VWS V13.01,2013-01-12 02:27:00,
2013-01-11 19:32:00,7.9,-3.8,25.25,North,0,0.0,0.0,58,0.00,,---,0.00,VWS V13.01,2013-01-12 02:32:00,
2013-01-11 19:37:00,7.7,-4.0,25.28,North,0,0.0,0.0,58,0.00,,---,0.00,VWS V13.01,2013-01-12 02:37:00,
2013-01-11 19:42:00,7.7,-4.0,25.28,North,0,0.0,0.0,58,0.00,,---,0.00,VWS V13.01,2013-01-12 02:42:00,
2013-01-11 19:47:00,7.5,-4.2,25.28,North,0,0.0,0.0,58,0.00,,---,0.00,VWS V13.01,2013-01-12 02:47:00,
2013-01-11 19:52:00,7.5,-4.2,25.28,North,0,0.0,0.0,58,0.00,,---,0.00,VWS V13.01,2013-01-12 02:52:00,
2013-01-11 19:57:00,7.5,-4.2,25.28,North,0,0.0,0.0,58,0.00,,---,0.00,VWS V13.01,2013-01-12 02:57:00,
2013-01-11 20:02:00,7.3,-4.3,25.28,North,0,0.0,0.0,58,0.00,,---,0.00,VWS V13.01,2013-01-12 03:02:00,
2013-01-11 20:07:00,7.3,-4.3,25.31,North,0,0.0,0.0,58,0.00,,---,0.00,VWS V13.01,2013-01-12 03:07:00,
2013-01-11 20:12:00,7.2,-4.5,25.31,North,0,0.0,0.0,58,0.00,,---,0.00,VWS V13.01,2013-01-12 03:12:00,
2013-01-11 20:17:00,7.2,-4.5,25.31,North,0,0.0,0.0,58,0.00,,---,0.00,VWS V13.01,2013-01-12 03:17:00,
2013-01-11 20:22:00,7.2,-4.5,25.31,North,0,0.0,0.0,58,0.00,,---,0.00,VWS V13.01,2013-01-12 03:22:00,
2013-01-11 20:27:00,7.0,-4.7,25.31,North,0,0.0,0.0,58,0.00,,---,0.00,VWS V13.01,2013-01-12 03:27:00,
2013-01-11 20:32:00,7.0,-4.7,25.31,North,0,0.0,0.0,58,0.00,,---,0.00,VWS V13.01,2013-01-12 03:32:00,
2013-01-11 20:37:00,7.0,-4.7,25.31,North,0,0.0,0.0,58,0.00,,---,0.00,VWS V13.01,2013-01-12 03:37:00,
2013-01-11 20:42:00,6.6,-5.0,25.31,North,0,0.0,0.0,58,0.00,,---,0.00,VWS V13.01,2013-01-12 03:42:00,
2013-01-11 20:47:00,6.4,-5.2,25.31,North,0,0.0,0.0,58,0.00,,---,0.00,VWS V13.01,2013-01-12 03:47:00,
2013-01-11 20:52:00,6.4,-5.2,25.31,North,0,0.0,0.0,58,0.00,,---,0.00,VWS V13.01,2013-01-12 03:52:00,
2013-01-11 20:57:00,6.3,-5.3,25.31,North,0,0.0,0.0,58,0.00,,---,0.00,VWS V13.01,2013-01-12 03:57:00,
2013-01-11 21:02:00,6.1,-5.5,25.31,North,0,0.0,0.0,58,0.00,,---,0.00,VWS V13.01,2013-01-12 04:02:00,
2013-01-11 21:07:00,5.9,-5.7,25.31,North,0,0.0,0.0,58,0.00,,---,0.00,VWS V13.01,2013-01-12 04:07:00,
2013-01-11 21:12:00,5.7,-5.9,25.31,North,0,0.0,0.0,58,0.00,,---,0.00,VWS V13.01,2013-01-12 04:12:00,
2013-01-11 21:17:00,5.7,-5.9,25.31,North,0,0.0,0.0,58,0.00,,---,0.00,VWS V13.01,2013-01-12 04:17:00,
2013-01-11 21:22:00,5.5,-6.0,25.31,North,0,0.0,0.0,58,0.00,,---,0.00,VWS V13.01,2013-01-12 04:22:00,
2013-01-11 21:27:00,5.5,-6.0,25.31,North,0,0.0,0.0,58,0.00,,---,0.00,VWS V13.01,2013-01-12 04:27:00,
2013-01-11 21:32:00,5.5,-6.0,25.31,North,0,0.0,0.0,58,0.00,,---,0.00,VWS V13.01,2013-01-12 04:32:00,
2013-01-11 21:37:00,5.5,-6.0,25.31,North,0,0.0,0.0,58,0.00,,---,0.00,VWS V13.01,2013-01-12 04:37:00,
2013-01-11 21:42:00,5.4,-6.2,25.31,North,0,0.0,0.0,58,0.00,,---,0.00,VWS V13.01,2013-01-12 04:42:00,
2013-01-11 21:47:00,5.2,-6.4,25.31,North,0,0.0,0.0,58,0.00,,---,0.00,VWS V13.01,2013-01-12 04:47:00,
2013-01-11 21:52:00,5.0,-6.5,25.34,North,0,0.0,0.0,58,0.00,,---,0.00,VWS V13.01,2013-01-12 04:52:00,
2013-01-11 21:57:00,5.0,-6.5,25.34,North,0,0.0,0.0,58,0.00,,---,0.00,VWS V13.01,2013-01-12 04:57:00,
2013-01-11 22:00:00,5.0,-6.5,25.34,North,0,0.0,0.0,58,0.00,,---,0.00,VWS V13.01,2013-01-12 05:00:00,
2013-01-11 22:02:00,5.0,-6.5,25.34,North,0,0.0,0.0,58,0.00,,---,0.00,VWS V13.01,2013-01-12 05:02:00,
2013-01-11 22:07:00,4.8,-6.7,25.34,North,0,0.0,0.0,58,0.00,,---,0.00,VWS V13.01,2013-01-12 05:07:00,
2013-01-11 22:12:00,5.0,-6.5,25.34,North,0,0.0,0.0,58,0.00,,---,0.00,VWS V13.01,2013-01-12 05:12:00,
2013-01-11 22:17:00,4.8,-6.7,25.34,North,0,0.0,0.0,58,0.00,,---,0.00,VWS V13.01,2013-01-12 05:17:00,
2013-01-11 22:22:00,4.8,-6.7,25.34,North,0,0.0,0.0,58,0.00,,---,0.00,VWS V13.01,2013-01-12 05:22:00,
2013-01-11 22:27:00,5.0,-6.5,25.34,North,0,0.0,0.0,58,0.00,,---,0.00,VWS V13.01,2013-01-12 05:27:00,
2013-01-11 22:32:00,5.0,-6.5,25.34,North,0,0.0,0.0,58,0.00,,---,0.00,VWS V13.01,2013-01-12 05:32:00,
2013-01-11 22:37:00,5.0,-6.5,25.34,North,0,0.0,0.0,58,0.00,,---,0.00,VWS V13.01,2013-01-12 05:37:00,
2013-01-11 22:42:00,5.0,-6.5,25.34,North,0,0.0,0.0,58,0.00,,---,0.00,VWS V13.01,2013-01-12 05:42:00,
2013-01-11 22:47:00,4.8,-6.7,25.34,North,0,0.0,0.0,58,0.00,,---,0.00,VWS V13.01,2013-01-12 05:47:00,
2013-01-11 22:52:00,4.5,-7.0,25.34,North,0,0.0,0.0,58,0.00,,---,0.00,VWS V13.01,2013-01-12 05:52:00,
2013-01-11 22:57:00,4.5,-7.0,25.34,North,0,0.0,0.0,58,0.00,,---,0.00,VWS V13.01,2013-01-12 05:57:00,
2013-01-11 23:02:00,4.5,-7.0,25.34,North,0,0.0,0.0,58,0.00,,---,0.00,VWS V13.01,2013-01-12 06:02:00,
2013-01-11 23:07:00,4.3,-7.2,25.34,North,0,0.0,0.0,58,0.00,,---,0.00,VWS V13.01,2013-01-12 06:07:00,
2013-01-11 23:12:00,4.3,-7.2,25.34,North,0,0.0,0.0,58,0.00,,---,0.00,VWS V13.01,2013-01-12 06:12:00,
2013-01-11 23:17:00,4.1,-7.4,25.34,North,0,0.0,0.0,58,0.00,,---,0.00,VWS V13.01,2013-01-12 06:17:00,
2013-01-11 23:22:00,3.9,-7.6,25.34,North,0,0.0,0.0,58,0.00,,---,0.00,VWS V13.01,2013-01-12 06:22:00,
2013-01-11 23:27:00,3.7,-7.7,25.34,North,0,0.0,0.0,58,0.00,,---,0.00,VWS V13.01,2013-01-12 06:27:00,
2013-01-11 23:32:00,3.7,-7.7,25.34,North,0,0.0,0.0,58,0.00,,---,0.00,VWS V13.01,2013-01-12 06:32:00,
2013-01-11 23:37:00,3.6,-7.9,25.34,North,0,0.0,0.0,58,0.00,,---,0.00,VWS V13.01,2013-01-12 06:37:00,
2013-01-11 23:42:00,3.4,-8.1,25.34,North,0,0.0,0.0,58,0.00,,---,0.00,VWS V13.01,2013-01-12 06:42:00,
2013-01-11 23:47:00,3.4,-8.1,25.34,North,0,0.0,0.0,58,0.00,,---,0.00,VWS V13.01,2013-01-12 06:47:00,
2013-01-11 23:52:00,3.4,-8.1,25.34,North,0,0.0,0.0,58,0.00,,---,0.00,VWS V13.01,2013-01-12 06:52:00,
2013-01-11 23:57:00,3.4,-8.1,25.34,North,0,0.0,0.0,58,0.00,,---,0.00,VWS V13.01,2013-01-12 06:57:00,